createdAt,value
2018-11-20T07:19:49.371Z,2.38
2018-11-20T07:20:53.939Z,2.48
2018-11-20T07:22:00.001Z,2.37
2018-11-20T07:23:07.076Z,2.26
2018-11-20T07:24:12.181Z,2.15
2018-11-20T07:25:18.217Z,2.08
2018-11-20T07:26:24.295Z,2.05
2018-11-20T07:27:30.356Z,2.00
2018-11-20T07:28:36.426Z,1.99
2018-11-20T07:29:42.584Z,1.97
2018-11-20T07:30:48.667Z,1.98
2018-11-20T07:31:54.697Z,1.99
2018-11-20T07:33:00.716Z,2.01
2018-11-20T07:34:06.797Z,2.03
2018-11-20T07:35:12.853Z,2.04
2018-11-20T07:36:19.115Z,2.05
2018-11-20T07:37:25.207Z,2.08
2018-11-20T07:38:31.209Z,2.11
2018-11-20T07:39:37.162Z,2.13
2018-11-20T07:40:43.422Z,2.14
2018-11-20T07:41:49.319Z,2.16
2018-11-20T07:42:55.399Z,2.17
2018-11-20T07:44:01.526Z,2.19
2018-11-20T07:45:07.539Z,2.16
2018-11-20T07:46:13.621Z,2.16
2018-11-20T07:47:19.685Z,2.16
2018-11-20T07:48:25.758Z,2.17
2018-11-20T07:49:31.836Z,2.17
2018-11-20T07:50:37.918Z,2.19
2018-11-20T07:51:44.040Z,2.19
2018-11-20T07:52:50.063Z,2.22
2018-11-20T07:53:56.146Z,2.24
2018-11-20T07:55:02.224Z,2.25
2018-11-20T07:56:08.451Z,2.25
2018-11-20T07:57:14.390Z,2.26
2018-11-20T07:58:20.954Z,2.27
2018-11-20T07:59:26.529Z,2.28
2018-11-20T08:00:32.610Z,2.30
2018-11-20T08:01:39.200Z,2.31
2018-11-20T08:02:44.796Z,2.34
2018-11-20T08:03:50.843Z,2.36
2018-11-20T08:04:56.935Z,2.38
2018-11-20T08:06:03.010Z,2.39
2018-11-20T08:07:09.100Z,2.40
2018-11-20T08:08:15.179Z,2.40
2018-11-20T08:09:21.249Z,2.42
2018-11-20T08:10:27.320Z,2.43
2018-11-20T08:11:33.423Z,2.44
2018-11-20T08:12:39.502Z,2.45
2018-11-20T08:13:45.570Z,2.49
2018-11-20T08:14:51.681Z,2.51
2018-11-20T08:15:57.775Z,2.51
2018-11-20T08:17:03.835Z,2.51
2018-11-20T08:18:09.922Z,2.54
2018-11-20T08:19:16.004Z,2.56
2018-11-20T08:20:22.082Z,2.57
2018-11-20T08:21:28.684Z,2.57
2018-11-20T08:22:34.270Z,2.58
2018-11-20T08:23:40.359Z,2.57
2018-11-20T08:24:46.450Z,2.59
2018-11-20T08:25:52.649Z,2.57
2018-11-20T08:26:58.629Z,2.60
2018-11-20T08:28:04.716Z,2.62
2018-11-20T08:29:10.816Z,2.63
2018-11-20T08:30:16.891Z,2.63
2018-11-20T08:31:22.985Z,2.66
2018-11-20T08:32:29.080Z,2.65
2018-11-20T08:33:35.241Z,2.67
2018-11-20T08:34:41.264Z,2.69
2018-11-20T08:35:47.338Z,2.70
2018-11-20T08:36:53.443Z,2.71
2018-11-20T08:37:59.545Z,2.72
2018-11-20T08:39:05.620Z,2.74
2018-11-20T08:40:11.717Z,2.75
2018-11-20T08:41:17.812Z,2.77
2018-11-20T08:42:23.937Z,2.80
2018-11-20T08:43:30.009Z,2.82
2018-11-20T08:44:36.089Z,2.83
2018-11-20T08:45:42.190Z,2.89
2018-11-20T08:46:48.293Z,2.90
2018-11-20T08:47:54.499Z,2.94
2018-11-20T08:49:00.479Z,2.96
2018-11-20T08:50:06.575Z,3.00
2018-11-20T08:51:12.677Z,3.03
2018-11-20T08:52:19.370Z,3.06
2018-11-20T08:53:24.879Z,3.11
2018-11-20T08:54:30.974Z,3.13
2018-11-20T08:55:37.075Z,3.14
2018-11-20T08:56:43.184Z,3.19
2018-11-20T08:57:49.281Z,3.24
2018-11-20T08:58:55.397Z,3.28
2018-11-20T09:00:01.496Z,3.33
2018-11-20T09:01:07.612Z,3.36
2018-11-20T09:02:14.259Z,3.39
2018-11-20T09:03:19.854Z,3.41
2018-11-20T09:04:25.943Z,3.45
2018-11-20T09:05:32.049Z,3.52
2018-11-20T09:06:38.167Z,3.53
2018-11-20T09:07:44.277Z,3.55
2018-11-20T09:08:50.400Z,3.54
2018-11-20T09:09:56.589Z,3.55
2018-11-20T09:11:02.626Z,3.56
2018-11-20T09:12:08.752Z,3.57
2018-11-20T09:13:14.867Z,3.63
2018-11-20T09:14:20.990Z,3.66
2018-11-20T09:15:27.109Z,3.65
2018-11-20T09:16:33.726Z,3.70
2018-11-20T09:17:39.345Z,3.72
2018-11-20T09:18:45.695Z,3.74
2018-11-20T09:19:51.603Z,3.70
2018-11-20T09:20:57.749Z,3.69
2018-11-20T09:22:03.837Z,3.66
2018-11-20T09:23:09.980Z,3.67
2018-11-20T09:24:16.092Z,3.69
2018-11-20T09:25:22.197Z,3.67
2018-11-20T09:26:28.824Z,3.65
2018-11-20T09:27:34.445Z,3.57
2018-11-20T09:28:40.571Z,3.53
2018-11-20T09:29:46.691Z,3.51
2018-11-20T09:30:52.801Z,3.51
2018-11-20T09:31:58.926Z,3.54
2018-11-20T09:33:05.036Z,3.60
2018-11-20T09:34:11.205Z,3.69
2018-11-20T09:35:17.437Z,3.79
2018-11-20T09:36:23.406Z,3.81
2018-11-20T09:37:29.531Z,3.80
2018-11-20T09:38:35.644Z,3.80
2018-11-20T09:39:41.781Z,3.81
2018-11-20T09:40:47.889Z,3.81
2018-11-20T09:41:54.021Z,3.79
2018-11-20T09:43:00.141Z,3.80
2018-11-20T09:44:06.275Z,3.84
2018-11-20T09:45:12.399Z,3.87
2018-11-20T09:46:18.515Z,3.88
2018-11-20T09:47:24.643Z,3.87
2018-11-20T09:48:30.764Z,3.86
2018-11-20T09:49:36.896Z,3.84
2018-11-20T09:50:43.019Z,3.83
2018-11-20T09:51:49.153Z,3.89
2018-11-20T09:52:55.438Z,3.91
2018-11-20T09:54:01.406Z,3.91
2018-11-20T09:55:07.529Z,3.91
2018-11-20T09:56:13.649Z,3.92
2018-11-20T09:57:20.289Z,3.95
2018-11-20T09:58:25.913Z,3.93
2018-11-20T09:59:32.519Z,3.88
2018-11-20T10:00:38.659Z,3.85
2018-11-20T10:01:44.322Z,3.81
2018-11-20T10:02:50.416Z,3.82
2018-11-20T10:03:56.567Z,3.83
2018-11-20T10:05:02.685Z,3.84
2018-11-20T10:06:08.811Z,3.85
2018-11-20T10:07:14.968Z,3.87
2018-11-20T10:08:21.076Z,3.88
2018-11-20T10:09:27.203Z,3.89
2018-11-20T10:10:33.326Z,3.94
2018-11-20T10:11:39.446Z,3.98
2018-11-20T10:12:45.581Z,3.96
2018-11-20T10:13:51.764Z,3.98
2018-11-20T10:14:57.960Z,3.98
2018-11-20T10:16:04.460Z,4.02
2018-11-20T10:17:10.105Z,4.03
2018-11-20T10:18:16.239Z,4.05
2018-11-20T10:19:22.363Z,4.03
2018-11-20T10:20:28.497Z,4.05
2018-11-20T10:21:34.676Z,4.06
2018-11-20T10:22:40.749Z,4.09
2018-11-20T10:23:46.889Z,4.15
2018-11-20T10:24:53.090Z,4.16
2018-11-20T10:25:59.245Z,4.09
2018-11-20T10:27:05.274Z,4.17
2018-11-20T10:28:11.410Z,4.23
2018-11-20T10:29:17.547Z,4.26
2018-11-20T10:30:23.684Z,4.19
2018-11-20T10:31:29.830Z,4.12
2018-11-20T10:32:35.995Z,4.14
2018-11-20T10:33:42.097Z,4.14
2018-11-20T10:34:48.275Z,4.15
2018-11-20T10:35:54.377Z,4.27
2018-11-20T10:37:00.505Z,4.32
2018-11-20T10:38:07.639Z,4.37
2018-11-20T10:39:12.781Z,4.38
2018-11-20T10:40:18.950Z,4.32
2018-11-20T10:41:25.582Z,4.33
2018-11-20T10:42:31.205Z,4.45
2018-11-20T10:43:37.345Z,4.52
2018-11-20T10:44:43.583Z,4.51
2018-11-20T10:45:49.651Z,4.49
2018-11-20T10:46:55.789Z,4.42
2018-11-20T10:48:01.924Z,4.43
2018-11-20T10:49:08.071Z,4.45
2018-11-20T10:50:14.214Z,4.37
2018-11-20T10:51:20.373Z,4.42
2018-11-20T10:52:26.695Z,4.44
2018-11-20T10:53:32.643Z,4.39
2018-11-20T10:54:38.794Z,4.37
2018-11-20T10:55:44.935Z,4.37
2018-11-20T10:56:51.095Z,4.40
2018-11-20T10:57:57.233Z,4.36
2018-11-20T10:59:03.368Z,4.39
2018-11-20T11:00:09.511Z,4.33
2018-11-20T11:01:15.672Z,4.34
2018-11-20T11:02:21.810Z,4.33
2018-11-20T11:03:27.956Z,4.32
2018-11-20T11:04:34.086Z,4.27
2018-11-20T11:05:40.238Z,4.22
2018-11-20T11:06:47.084Z,4.24
2018-11-20T11:07:52.673Z,4.28
2018-11-20T11:08:58.675Z,4.31
2018-11-20T11:10:04.808Z,4.33
2018-11-20T11:11:10.960Z,4.34
2018-11-20T11:12:17.109Z,4.31
2018-11-20T11:13:23.233Z,4.35
2018-11-20T11:14:29.427Z,4.37
2018-11-20T11:15:35.521Z,4.38
2018-11-20T11:16:41.673Z,4.35
2018-11-20T11:17:47.815Z,4.33
2018-11-20T11:18:53.954Z,4.28
2018-11-20T11:20:00.099Z,4.33
2018-11-20T11:21:06.344Z,4.38
2018-11-20T11:22:12.405Z,4.43
2018-11-20T11:23:18.536Z,4.51
2018-11-20T11:24:24.685Z,4.60
2018-11-20T11:25:30.842Z,4.67
2018-11-20T11:26:36.990Z,4.73
2018-11-20T11:27:43.148Z,4.83
2018-11-20T11:28:51.341Z,4.88
2018-11-20T11:29:55.460Z,4.86
2018-11-20T11:31:01.637Z,4.88
2018-11-20T11:32:07.774Z,4.81
2018-11-20T11:33:13.925Z,4.85
2018-11-20T11:34:20.083Z,4.86
2018-11-20T11:35:26.248Z,4.86
2018-11-20T11:36:32.415Z,4.94
2018-11-20T11:37:38.583Z,4.89
2018-11-20T11:38:44.738Z,5.02
2018-11-20T11:39:50.908Z,5.01
2018-11-20T11:40:57.075Z,5.08
2018-11-20T11:42:03.232Z,5.05
2018-11-20T11:43:09.404Z,5.07
2018-11-20T11:44:16.059Z,5.10
2018-11-20T11:45:21.739Z,5.04
2018-11-20T11:46:27.894Z,4.91
2018-11-20T11:47:35.071Z,4.91
2018-11-20T11:48:40.242Z,4.88
2018-11-20T11:49:46.409Z,4.80
2018-11-20T11:50:52.561Z,4.74
2018-11-20T11:51:58.722Z,4.67
2018-11-20T11:53:04.890Z,4.58
2018-11-20T11:54:11.053Z,4.56
2018-11-20T11:55:17.208Z,4.47
2018-11-20T11:56:23.364Z,4.45
2018-11-20T11:57:29.522Z,4.38
2018-11-20T11:58:35.673Z,4.39
2018-11-20T11:59:41.817Z,4.39
2018-11-20T12:00:47.970Z,4.38
2018-11-20T12:06:18.719Z,4.11
2018-11-20T12:07:24.874Z,4.11
2018-11-20T12:08:31.026Z,4.13
2018-11-20T12:09:37.173Z,4.12
2018-11-20T12:10:43.308Z,4.08
2018-11-20T12:11:49.453Z,4.06
2018-11-20T12:12:55.584Z,4.03
2018-11-20T12:14:01.737Z,4.01
2018-11-20T12:15:08.389Z,3.96
2018-11-20T12:16:14.511Z,3.91
2018-11-20T12:17:20.150Z,3.89
2018-11-20T12:18:26.292Z,3.84
2018-11-20T12:19:32.428Z,3.82
2018-11-20T12:20:39.039Z,3.79
2018-11-20T12:21:44.692Z,3.79
2018-11-20T12:22:50.822Z,3.82
2018-11-20T12:23:56.972Z,3.83
2018-11-20T12:25:03.104Z,3.85
2018-11-20T12:26:09.228Z,3.83
2018-11-20T12:27:15.363Z,3.80
2018-11-20T12:28:21.500Z,3.82
2018-11-20T12:29:27.650Z,3.85
2018-11-20T12:30:34.839Z,3.90
2018-11-20T12:31:39.900Z,3.93
2018-11-20T12:32:49.193Z,3.94
2018-11-20T12:33:52.167Z,3.95
2018-11-20T12:34:58.297Z,3.94
2018-11-20T12:36:04.430Z,3.88
2018-11-20T12:37:11.067Z,3.83
2018-11-20T12:38:17.303Z,3.81
2018-11-20T12:39:22.820Z,3.76
2018-11-20T12:40:28.943Z,3.74
2018-11-20T12:41:35.076Z,3.73
2018-11-20T12:42:41.477Z,3.72
2018-11-20T12:43:47.329Z,3.69
2018-11-20T12:44:54.393Z,3.67
2018-11-20T12:45:59.595Z,3.64
2018-11-20T12:47:09.162Z,3.60
2018-11-20T12:48:11.847Z,3.55
2018-11-20T12:49:19.061Z,3.52
2018-11-20T12:50:24.108Z,3.44
2018-11-20T12:51:30.220Z,3.41
2018-11-20T12:52:36.348Z,3.38
2018-11-20T12:53:42.469Z,3.39
2018-11-20T12:54:50.557Z,3.41
2018-11-20T12:55:54.930Z,3.42
2018-11-20T12:57:00.838Z,3.43
2018-11-20T12:58:06.963Z,3.45
2018-11-20T12:59:14.004Z,3.46
2018-11-20T13:00:20.205Z,3.45
2018-11-20T13:01:25.322Z,3.43
2018-11-20T13:02:31.574Z,3.42
2018-11-20T13:03:37.570Z,3.40
2018-11-20T13:04:43.683Z,3.37
2018-11-20T13:05:49.813Z,3.32
2018-11-20T13:06:56.925Z,3.23
2018-11-20T13:08:02.239Z,3.15
2018-11-20T13:09:08.172Z,3.05
2018-11-20T13:10:15.298Z,3.01
2018-11-20T13:11:20.404Z,2.99
2018-11-20T13:12:26.519Z,2.98
2018-11-20T13:13:32.631Z,2.97
2018-11-20T13:14:38.759Z,2.96
2018-11-20T13:15:44.864Z,2.95
2018-11-20T13:16:50.977Z,2.94
2018-11-20T13:17:57.088Z,2.93
2018-11-20T13:19:03.202Z,2.93
2018-11-20T13:20:10.643Z,2.95
2018-11-20T13:21:15.432Z,2.94
2018-11-20T13:22:21.540Z,2.92
2018-11-20T13:23:29.321Z,2.92
2018-11-20T13:24:33.756Z,2.92
2018-11-20T13:25:39.880Z,2.93
2018-11-20T13:26:45.981Z,2.95
2018-11-20T13:27:52.083Z,2.98
2018-11-20T13:28:58.198Z,3.00
2018-11-20T13:30:04.305Z,3.02
2018-11-20T13:31:10.430Z,3.05
2018-11-20T13:32:16.542Z,3.09
2018-11-20T13:33:23.541Z,3.07
